KAFW/AFW METAR and TAF weather

Enter ICAO airport designator
Station Type Date Time Source
KAFW METAR 2020/07/09 07:53 UTC NOAA

KAFW 090753Z 18011KT 10SM CLR 28/22 A2982 RMK AO2 SLP079 T02830222


Station Type Date Time Source
KAFW Decoded METAR 2020/07/09 07:53 UTC NOAA

FORT WORTH ALLIANCE AIRPORT, TX, United States (KAFW) 32-59N 097-19W 233M
Jul 09, 2020 - 03:53 AM EDT / 2020.07.09 0753 UTC
Wind: from the S (180 degrees) at 13 MPH (11 KT):0
Visibility: 10 mile(s):0
Sky conditions: clear
Temperature: 82.9 F (28.3 C)
Dew Point: 72.0 F (22.2 C)
Relative Humidity: 69%
Pressure (altimeter): 29.82 in. Hg (1009 hPa)
ob: KAFW 090753Z 18011KT 10SM CLR 28/22 A2982 RMK AO2 SLP079 T02830222
cycle: 8

Station Type Date Time Source
KAFW TAF 2020/07/09 06:22 UTC NOAA

TAF KAFW 090520Z 0906/1006 16007KT P6SM SKC
FM091300 19012KT P6SM FEW025

Example: see airport list